Time;durP1;ratioP1;P1;durP2;ratioP2;P2;SDS_P1;SDS_P2;PMS_P1;PMS_P2;Temp;Humidity;BMP_temperature;BMP_pressure;BME280_temperature;BME280_humidity;BME280_pressure;Samples;Min_cycle;Max_cycle;Signal;HPM_P1;HPM_P2
2024/01/11 00:01:59;;;;;;;124.97;58.08;;;13.00;52.00;;;;;;4896111;28;88935;-83
2024/01/11 00:04:25;;;;;;;123.22;58.25;;;13.00;52.00;;;;;;4901968;28;89602;-84
2024/01/11 00:06:51;;;;;;;124.97;58.25;;;13.00;51.80;;;;;;4897730;28;91688;-84
2024/01/11 00:09:16;;;;;;;126.68;58.30;;;12.90;51.90;;;;;;4907070;28;89284;-84
2024/01/11 00:11:42;;;;;;;127.97;59.00;;;12.90;51.90;;;;;;4897705;28;88469;-84
2024/01/11 00:14:07;;;;;;;125.40;58.22;;;12.90;51.90;;;;;;4903606;28;92706;-84
2024/01/11 00:16:33;;;;;;;122.40;58.30;;;12.90;52.00;;;;;;4913645;28;91891;-84
2024/01/11 00:19:00;;;;;;;123.60;57.95;;;12.80;51.80;;;;;;4913033;28;90020;-85
2024/01/11 00:21:26;;;;;;;121.43;58.00;;;12.80;51.90;;;;;;4897876;28;89600;-84
2024/01/11 00:23:51;;;;;;;121.55;57.83;;;12.80;51.80;;;;;;4898047;28;90527;-84
2024/01/11 00:26:17;;;;;;;122.70;57.83;;;12.80;51.80;;;;;;4897928;28;92958;-84
2024/01/11 00:28:43;;;;;;;123.20;58.60;;;12.80;51.70;;;;;;4902645;28;90204;-84
2024/01/11 00:31:08;;;;;;;120.85;57.65;;;12.70;51.80;;;;;;4900215;28;90125;-84
2024/01/11 00:33:34;;;;;;;123.32;58.20;;;12.70;51.80;;;;;;4900374;28;90629;-84
2024/01/11 00:35:59;;;;;;;125.15;58.67;;;12.70;51.80;;;;;;4897004;28;89843;-84
2024/01/11 00:38:25;;;;;;;121.50;58.30;;;12.70;51.90;;;;;;4902253;28;89864;-84
2024/01/11 00:40:51;;;;;;;123.53;57.88;;;12.60;51.80;;;;;;4900067;28;89086;-84
2024/01/11 00:43:16;;;;;;;121.75;57.92;;;12.60;51.80;;;;;;4901947;28;93499;-83
2024/01/11 00:45:43;;;;;;;127.18;58.25;;;12.60;51.80;;;;;;4903019;28;93244;-84
2024/01/11 00:48:09;;;;;;;123.45;57.92;;;12.60;51.80;;;;;;4900223;28;88520;-84
2024/01/11 00:50:34;;;;;;;121.07;57.83;;;12.50;51.80;;;;;;4900740;28;89921;-84
2024/01/11 00:53:01;;;;;;;121.25;58.47;;;12.50;51.80;;;;;;4895500;28;92446;-84
2024/01/11 00:55:26;;;;;;;121.50;58.03;;;12.50;51.90;;;;;;4901277;28;92649;-84
2024/01/11 00:57:52;;;;;;;121.93;57.95;;;12.50;51.90;;;;;;4899006;28;90131;-84
2024/01/11 01:00:18;;;;;;;121.30;57.58;;;12.50;52.00;;;;;;4917552;28;89120;-84
2024/01/11 01:02:43;;;;;;;120.68;57.55;;;12.40;52.00;;;;;;4901405;28;93198;-85
2024/01/11 01:05:10;;;;;;;123.05;58.75;;;12.40;51.80;;;;;;4904232;28;90066;-84
2024/01/11 01:07:35;;;;;;;120.35;57.75;;;12.40;51.90;;;;;;4899278;28;90457;-83
2024/01/11 01:10:01;;;;;;;122.38;58.17;;;12.40;51.80;;;;;;4905015;28;89526;-84
2024/01/11 01:12:28;;;;;;;122.18;58.50;;;12.40;51.80;;;;;;4896652;28;93038;-84
2024/01/11 01:14:55;;;;;;;121.57;57.95;;;12.40;51.80;;;;;;4896409;28;92237;-84
2024/01/11 01:17:24;;;;;;;119.88;57.95;;;12.30;51.80;;;;;;4900761;28;90289;-83
2024/01/11 01:19:49;;;;;;;120.90;58.30;;;12.30;51.80;;;;;;4900335;28;89224;-84
2024/01/11 01:22:15;;;;;;;121.72;58.20;;;12.30;51.80;;;;;;4901273;28;91849;-84
2024/01/11 01:24:41;;;;;;;119.30;57.95;;;12.30;51.90;;;;;;4902906;28;92437;-84
2024/01/11 01:27:06;;;;;;;122.80;58.75;;;12.30;51.80;;;;;;4901558;28;89424;-84
2024/01/11 01:29:32;;;;;;;121.13;57.95;;;12.30;51.80;;;;;;4903236;28;89060;-83
2024/01/11 01:31:57;;;;;;;121.90;58.28;;;12.30;51.90;;;;;;4896049;28;91136;-84
2024/01/11 01:34:23;;;;;;;120.68;58.22;;;12.20;51.80;;;;;;4900361;28;93891;-84
2024/01/11 01:36:49;;;;;;;121.10;58.17;;;12.20;51.90;;;;;;4897143;28;90259;-84
2024/01/11 01:39:14;;;;;;;121.40;58.53;;;12.20;51.90;;;;;;4894818;28;89293;-83
2024/01/11 01:41:40;;;;;;;120.90;58.03;;;12.20;51.90;;;;;;4901080;28;93036;-84
2024/01/11 01:44:05;;;;;;;121.70;58.33;;;12.10;51.90;;;;;;4901811;28;92136;-83
2024/01/11 01:46:31;;;;;;;122.32;57.88;;;12.10;51.90;;;;;;4895483;28;89460;-83
2024/01/11 01:48:58;;;;;;;120.93;58.33;;;12.10;51.90;;;;;;4896476;28;89303;-83
2024/01/11 01:51:26;;;;;;;123.82;58.75;;;12.10;51.80;;;;;;4895025;28;90013;-83
2024/01/11 01:53:54;;;;;;;121.20;58.53;;;12.10;51.80;;;;;;4895134;28;89814;-83
2024/01/11 01:56:21;;;;;;;121.20;57.88;;;12.00;51.80;;;;;;4900800;28;90422;-83
2024/01/11 01:58:48;;;;;;;122.82;58.17;;;12.00;51.90;;;;;;4893709;28;88996;-84
2024/01/11 02:01:14;;;;;;;119.40;58.17;;;12.00;51.90;;;;;;4904455;28;92950;-83
2024/01/11 02:03:41;;;;;;;121.18;58.25;;;12.00;51.90;;;;;;4898029;28;90831;-84
2024/01/11 02:06:07;;;;;;;120.55;58.20;;;12.00;51.90;;;;;;4894920;28;89905;-83
2024/01/11 02:08:35;;;;;;;123.93;57.75;;;12.00;52.00;;;;;;4903356;28;93761;-84
2024/01/11 02:11:01;;;;;;;120.32;58.15;;;12.00;52.00;;;;;;4901746;28;92594;-84
2024/01/11 02:13:26;;;;;;;121.57;57.75;;;12.00;51.90;;;;;;4898298;28;91105;-83
2024/01/11 02:15:52;;;;;;;120.65;58.33;;;12.00;51.90;;;;;;4901113;28;89555;-83
2024/01/11 02:18:18;;;;;;;121.18;58.22;;;12.00;52.00;;;;;;4896810;28;89358;-84
2024/01/11 02:20:44;;;;;;;119.95;57.53;;;11.90;51.80;;;;;;4897763;28;91207;-84
2024/01/11 02:23:19;;;;;;;120.93;57.95;;;11.90;51.90;;;;;;4901372;28;93482;-84
2024/01/11 02:25:45;;;;;;;120.10;57.58;;;11.90;52.00;;;;;;4918965;28;89367;-83
2024/01/11 02:28:11;;;;;;;118.43;57.28;;;11.90;52.00;;;;;;4901703;28;89135;-83
2024/01/11 02:30:37;;;;;;;121.20;58.13;;;11.90;52.00;;;;;;4904331;28;89739;-83
2024/01/11 02:33:04;;;;;;;120.00;57.67;;;11.90;52.00;;;;;;4904594;28;92834;-83
2024/01/11 02:35:30;;;;;;;121.03;58.70;;;11.80;51.90;;;;;;4906623;28;89565;-85
2024/01/11 02:37:58;;;;;;;119.25;57.42;;;11.80;51.90;;;;;;4899929;28;88876;-83
2024/01/11 02:40:25;;;;;;;121.18;58.15;;;11.80;52.00;;;;;;4899209;28;89874;-84
2024/01/11 02:42:51;;;;;;;120.80;58.10;;;11.80;51.90;;;;;;4898627;28;91826;-83
2024/01/11 02:45:16;;;;;;;121.30;57.72;;;11.80;51.90;;;;;;4900134;28;90293;-85
2024/01/11 02:47:42;;;;;;;122.20;58.30;;;11.80;51.90;;;;;;4903744;28;88913;-84
2024/01/11 02:50:08;;;;;;;119.65;57.75;;;11.80;51.90;;;;;;4905108;28;92933;-85
2024/01/11 02:52:34;;;;;;;122.10;58.50;;;11.70;52.00;;;;;;4913775;28;89993;-85
2024/01/11 02:55:00;;;;;;;119.97;57.80;;;11.70;51.90;;;;;;4913155;28;90224;-85
2024/01/11 02:57:26;;;;;;;119.93;57.47;;;11.70;51.90;;;;;;4914533;28;90167;-86
2024/01/11 02:59:51;;;;;;;119.50;57.67;;;11.70;52.00;;;;;;4908114;28;92616;-83
2024/01/11 03:02:17;;;;;;;119.93;58.08;;;11.70;52.00;;;;;;4903763;28;90183;-83
2024/01/11 03:04:43;;;;;;;121.38;58.35;;;11.70;52.00;;;;;;4900603;28;89812;-83
2024/01/11 03:07:08;;;;;;;123.00;57.78;;;11.70;52.00;;;;;;4898448;28;90152;-83
2024/01/11 03:09:34;;;;;;;121.57;58.40;;;11.70;52.00;;;;;;4902252;28;90845;-83
2024/01/11 03:12:00;;;;;;;121.18;58.30;;;11.70;52.00;;;;;;4901047;28;90514;-83
2024/01/11 03:14:26;;;;;;;119.50;57.83;;;11.60;52.10;;;;;;4899306;28;93637;-85
2024/01/11 03:16:52;;;;;;;119.45;57.83;;;11.60;52.10;;;;;;4900233;28;89406;-84
2024/01/11 03:19:17;;;;;;;119.63;57.88;;;11.60;52.60;;;;;;4903307;28;92212;-83
2024/01/11 03:21:46;;;;;;;118.60;57.78;;;11.60;52.10;;;;;;4902202;28;89361;-84
2024/01/11 03:24:13;;;;;;;120.28;57.83;;;11.60;52.10;;;;;;4904968;28;88921;-84
2024/01/11 03:26:39;;;;;;;120.78;57.78;;;11.60;52.00;;;;;;4916925;28;88446;-84
2024/01/11 03:29:05;;;;;;;117.75;57.33;;;11.60;52.10;;;;;;4898352;28;93534;-83
2024/01/11 03:31:31;;;;;;;118.18;57.33;;;11.60;52.00;;;;;;4897181;28;91844;-83
2024/01/11 03:33:57;;;;;;;120.22;58.00;;;11.60;52.10;;;;;;4903802;28;90852;-83
2024/01/11 03:36:25;;;;;;;121.47;58.30;;;11.50;51.90;;;;;;4900043;28;88985;-85
2024/01/11 03:38:51;;;;;;;123.00;57.20;;;11.50;52.00;;;;;;4902481;28;92752;-86
2024/01/11 03:41:17;;;;;;;117.70;57.63;;;11.50;52.10;;;;;;4901901;28;92809;-86
2024/01/11 03:43:42;;;;;;;119.90;57.78;;;11.50;52.10;;;;;;4903041;28;90267;-85
2024/01/11 03:46:08;;;;;;;118.78;57.40;;;11.50;52.20;;;;;;4902636;28;89050;-85
2024/01/11 03:48:35;;;;;;;119.70;57.17;;;11.50;52.20;;;;;;4904014;28;88932;-84
2024/01/11 03:51:01;;;;;;;117.93;57.22;;;11.50;52.10;;;;;;4905031;28;92645;-84
2024/01/11 03:53:28;;;;;;;121.65;58.60;;;11.40;52.20;;;;;;4915504;28;88869;-85
2024/01/11 03:55:53;;;;;;;120.65;57.88;;;11.50;52.40;;;;;;4898029;28;89616;-85
2024/01/11 03:58:19;;;;;;;119.55;57.65;;;11.50;52.30;;;;;;4896682;28;93286;-85
2024/01/11 04:00:45;;;;;;;120.50;57.88;;;11.50;52.20;;;;;;4907478;28;93108;-85
2024/01/11 04:03:10;;;;;;;119.68;58.10;;;11.50;52.30;;;;;;4910401;28;89160;-85
2024/01/11 04:05:36;;;;;;;119.00;57.42;;;11.40;52.30;;;;;;4898402;28;89544;-87
2024/01/11 04:08:09;;;;;;;119.35;57.60;;;11.50;52.40;;;;;;4904621;28;92753;-85
2024/01/11 04:10:35;;;;;;;116.35;57.20;;;11.40;52.40;;;;;;4898157;28;89927;-85
2024/01/11 04:13:00;;;;;;;118.35;57.80;;;11.40;52.60;;;;;;4898373;28;89671;-85
2024/01/11 04:15:26;;;;;;;118.38;57.60;;;11.40;52.60;;;;;;4899963;28;88556;-87
2024/01/11 04:17:52;;;;;;;118.57;57.63;;;11.40;52.60;;;;;;4899561;28;93504;-85
2024/01/11 04:20:18;;;;;;;120.40;57.17;;;11.40;52.50;;;;;;4903089;28;93336;-86
2024/01/11 04:22:43;;;;;;;119.03;57.45;;;11.40;52.60;;;;;;4900076;28;91198;-85
2024/01/11 04:25:10;;;;;;;118.43;57.30;;;11.40;52.40;;;;;;4900899;28;88816;-85
2024/01/11 04:27:35;;;;;;;118.43;57.28;;;11.50;52.10;;;;;;4896619;28;96023;-84
2024/01/11 04:30:01;;;;;;;118.43;57.85;;;11.50;51.80;;;;;;4903316;28;88928;-85
2024/01/11 04:32:26;;;;;;;118.43;57.83;;;11.50;51.80;;;;;;4901212;28;89839;-85
2024/01/11 04:34:52;;;;;;;118.10;57.38;;;11.50;51.70;;;;;;4902771;28;89113;-86
2024/01/11 04:37:18;;;;;;;120.85;57.83;;;11.50;51.60;;;;;;4896188;28;92642;-85
2024/01/11 04:39:44;;;;;;;119.13;57.13;;;11.60;51.80;;;;;;4900445;28;91129;-85
2024/01/11 04:42:10;;;;;;;120.32;57.80;;;11.60;51.80;;;;;;4913771;28;90006;-86
2024/01/11 04:44:36;;;;;;;118.07;57.00;;;11.50;51.60;;;;;;4900016;28;88635;-86
2024/01/11 04:47:01;;;;;;;117.53;56.92;;;11.60;51.60;;;;;;4899440;28;90024;-85
2024/01/11 04:49:27;;;;;;;117.18;57.30;;;11.50;51.70;;;;;;4900945;28;92714;-85
2024/01/11 04:51:53;;;;;;;122.18;58.33;;;11.50;51.80;;;;;;4900945;28;89150;-85
2024/01/11 04:54:18;;;;;;;119.50;57.80;;;11.50;51.80;;;;;;4899680;28;89981;-84
2024/01/11 04:56:44;;;;;;;119.07;57.28;;;11.50;51.80;;;;;;4896187;28;93062;-85
2024/01/11 04:59:10;;;;;;;117.78;57.42;;;11.50;51.80;;;;;;4900766;28;92487;-85
2024/01/11 05:01:35;;;;;;;120.75;57.63;;;11.50;51.90;;;;;;4902857;28;89074;-85
2024/01/11 05:04:01;;;;;;;118.38;57.35;;;11.50;51.90;;;;;;4902695;28;88638;-85
2024/01/11 05:06:27;;;;;;;116.93;57.13;;;11.50;51.80;;;;;;4912109;28;92576;-85
2024/01/11 05:08:52;;;;;;;119.80;57.15;;;11.50;51.90;;;;;;4895201;28;88844;-85
2024/01/11 05:11:19;;;;;;;117.47;57.03;;;11.50;52.00;;;;;;4904853;28;90013;-85
2024/01/11 05:13:48;;;;;;;119.22;57.22;;;11.40;52.10;;;;;;4902835;28;89053;-85
2024/01/11 05:16:21;;;;;;;120.60;58.13;;;11.40;52.10;;;;;;4901963;28;89469;-85
2024/01/11 05:18:47;;;;;;;121.45;57.70;;;11.40;52.20;;;;;;4903584;28;91740;-85
2024/01/11 05:21:12;;;;;;;117.65;57.22;;;11.40;52.30;;;;;;4920021;28;89276;-86
2024/01/11 05:23:38;;;;;;;119.25;58.15;;;11.40;52.20;;;;;;4904108;28;88872;-87
2024/01/11 05:26:03;;;;;;;119.50;57.38;;;11.40;52.40;;;;;;4900836;28;91947;-85
2024/01/11 05:28:29;;;;;;;120.10;57.58;;;11.40;52.40;;;;;;4899908;28;92156;-85
2024/01/11 05:30:55;;;;;;;120.57;58.00;;;11.30;52.40;;;;;;4906414;28;88905;-86
2024/01/11 05:33:20;;;;;;;119.68;57.42;;;11.30;52.60;;;;;;4906058;28;89626;-86
2024/01/11 05:35:46;;;;;;;118.70;57.00;;;11.30;52.60;;;;;;4907723;28;93545;-85
2024/01/11 05:38:12;;;;;;;118.35;57.42;;;11.30;52.70;;;;;;4898697;28;93776;-85
2024/01/11 05:40:37;;;;;;;118.25;57.35;;;11.30;52.60;;;;;;4896589;28;88939;-85
2024/01/11 05:43:03;;;;;;;119.18;57.58;;;11.30;52.70;;;;;;4897029;28;90039;-86
2024/01/11 05:45:29;;;;;;;118.15;57.25;;;11.30;52.80;;;;;;4898846;28;92963;-85
2024/01/11 05:47:55;;;;;;;118.35;56.88;;;11.30;52.90;;;;;;4898553;28;89738;-85
2024/01/11 05:50:20;;;;;;;117.10;57.72;;;11.20;53.00;;;;;;4893316;28;88932;-86
2024/01/11 05:52:46;;;;;;;117.90;57.47;;;11.20;53.00;;;;;;4900773;28;88832;-85
2024/01/11 05:55:12;;;;;;;118.88;57.33;;;11.20;53.10;;;;;;4899686;28;88845;-85
2024/01/11 05:57:37;;;;;;;119.25;57.60;;;11.20;53.10;;;;;;4901962;28;89905;-86
2024/01/11 06:00:05;;;;;;;118.88;57.65;;;11.20;53.10;;;;;;4902709;28;90474;-86
2024/01/11 06:02:31;;;;;;;118.55;57.30;;;11.10;53.10;;;;;;4901163;28;88853;-86
2024/01/11 06:04:57;;;;;;;116.85;57.08;;;11.10;53.20;;;;;;4900707;28;93391;-86
2024/01/11 06:07:23;;;;;;;118.43;57.17;;;11.10;53.30;;;;;;4902494;28;92637;-85
2024/01/11 06:09:49;;;;;;;121.10;57.53;;;11.10;53.60;;;;;;4898608;28;90588;-86
2024/01/11 06:12:15;;;;;;;116.78;56.58;;;11.10;53.60;;;;;;4898265;28;89972;-85
2024/01/11 06:14:40;;;;;;;118.45;57.55;;;11.10;53.80;;;;;;4898289;28;92478;-87
2024/01/11 06:17:06;;;;;;;119.93;57.85;;;11.10;53.80;;;;;;4905046;28;89463;-84
2024/01/11 06:19:32;;;;;;;116.97;56.97;;;11.20;53.80;;;;;;4899520;28;90132;-84
2024/01/11 06:21:58;;;;;;;116.88;56.70;;;11.10;53.80;;;;;;4902186;28;89853;-86
2024/01/11 06:24:24;;;;;;;120.72;57.35;;;11.10;54.00;;;;;;4899997;28;90705;-85
2024/01/11 06:26:49;;;;;;;122.70;57.20;;;11.20;54.00;;;;;;4903378;28;90374;-86
2024/01/11 06:29:15;;;;;;;119.47;57.08;;;11.20;54.10;;;;;;4900969;28;88870;-87
2024/01/11 06:31:41;;;;;;;117.57;57.28;;;11.20;54.30;;;;;;4906148;28;90033;-87
2024/01/11 06:34:06;;;;;;;119.55;57.10;;;11.20;54.50;;;;;;4913782;28;92252;-84
2024/01/11 06:36:32;;;;;;;117.10;56.90;;;11.10;54.40;;;;;;4904473;28;93700;-85
2024/01/11 06:38:57;;;;;;;118.63;57.72;;;11.20;54.20;;;;;;4896785;28;91254;-85
2024/01/11 06:41:24;;;;;;;117.70;57.22;;;11.10;54.30;;;;;;4899318;28;89021;-89
2024/01/11 06:43:49;;;;;;;120.70;57.35;;;11.10;54.50;;;;;;4896913;28;91886;-87
2024/01/11 06:46:20;;;;;;;118.20;57.38;;;11.10;54.40;;;;;;4903879;28;91736;-85
2024/01/11 06:48:46;;;;;;;118.40;57.10;;;11.10;54.40;;;;;;4900538;28;89681;-86
2024/01/11 06:51:15;;;;;;;121.63;57.28;;;11.00;54.60;;;;;;4898648;28;88519;-85
2024/01/11 06:53:41;;;;;;;119.72;57.53;;;11.10;54.60;;;;;;4900641;28;92540;-85
2024/01/11 06:56:18;;;;;;;118.05;56.97;;;11.10;54.20;;;;;;4912277;28;90630;-85
2024/01/11 06:58:44;;;;;;;120.50;56.80;;;11.10;54.20;;;;;;4904477;28;89479;-85
2024/01/11 07:01:10;;;;;;;121.75;57.75;;;11.10;54.20;;;;;;4908136;28;88784;-85
2024/01/11 07:03:37;;;;;;;123.03;57.42;;;11.10;54.10;;;;;;4907182;28;91746;-84
2024/01/11 07:06:03;;;;;;;122.40;57.05;;;11.00;54.10;;;;;;4900517;28;89606;-84
2024/01/11 07:08:30;;;;;;;119.35;57.53;;;11.00;54.20;;;;;;4897449;28;89686;-84
2024/01/11 07:10:56;;;;;;;117.60;57.50;;;11.00;54.20;;;;;;4904884;28;89494;-84
2024/01/11 07:13:22;;;;;;;118.55;57.42;;;11.00;54.10;;;;;;4901658;28;90763;-84
2024/01/11 07:15:48;;;;;;;120.32;57.17;;;10.90;54.30;;;;;;4897425;28;90362;-86
2024/01/11 07:18:14;;;;;;;119.65;57.53;;;10.90;54.00;;;;;;4897914;28;88502;-84
2024/01/11 07:20:40;;;;;;;119.93;57.28;;;10.90;54.00;;;;;;4899494;28;89684;-84
2024/01/11 07:23:06;;;;;;;119.53;57.70;;;10.90;54.00;;;;;;4903719;28;92630;-84
2024/01/11 07:25:34;;;;;;;118.00;57.33;;;10.90;54.00;;;;;;4899633;28;91262;-84
2024/01/11 07:28:00;;;;;;;117.97;57.75;;;10.90;53.90;;;;;;4895598;28;89867;-87
2024/01/11 07:30:26;;;;;;;120.13;58.80;;;10.90;54.50;;;;;;4898544;28;87837;-86
2024/01/11 07:32:51;;;;;;;122.20;60.60;;;10.90;54.30;;;;;;4914139;28;92609;-88
2024/01/11 07:35:17;;;;;;;135.82;66.63;;;10.80;54.40;;;;;;4898834;28;92112;-88
2024/01/11 07:37:43;;;;;;;136.85;69.90;;;10.80;54.10;;;;;;4898863;28;89410;-87
2024/01/11 07:40:10;;;;;;;135.27;68.10;;;10.90;53.70;;;;;;4899079;28;89710;-86
2024/01/11 07:42:38;;;;;;;135.45;67.47;;;11.00;53.30;;;;;;4912212;28;93034;-86
2024/01/11 07:45:05;;;;;;;138.85;68.53;;;11.10;52.90;;;;;;4902680;28;92885;-83
2024/01/11 07:47:30;;;;;;;134.77;68.72;;;11.10;53.10;;;;;;4898859;28;89340;-83
2024/01/11 07:49:56;;;;;;;134.65;67.40;;;11.20;53.20;;;;;;4901869;28;88962;-84
2024/01/11 07:52:22;;;;;;;131.15;66.00;;;11.20;52.90;;;;;;4900689;28;92004;-84
2024/01/11 07:54:47;;;;;;;133.48;65.90;;;11.30;52.70;;;;;;4904098;28;89691;-85
2024/01/11 07:57:13;;;;;;;138.63;66.55;;;11.50;52.50;;;;;;4897763;28;89247;-88
2024/01/11 07:59:39;;;;;;;134.65;64.85;;;11.70;52.20;;;;;;4901896;28;89398;-88
2024/01/11 08:02:05;;;;;;;135.45;64.88;;;12.00;52.20;;;;;;4905659;28;90448;-88
2024/01/11 08:04:31;;;;;;;131.32;63.83;;;12.20;50.90;;;;;;4907804;28;93727;-88
2024/01/11 08:06:59;;;;;;;132.02;64.07;;;12.30;50.70;;;;;;4900513;28;88652;-87
2024/01/11 08:09:28;;;;;;;132.25;64.22;;;12.40;50.40;;;;;;4901951;28;88765;-89
2024/01/11 08:11:54;;;;;;;133.35;63.80;;;12.50;50.40;;;;;;4892686;28;90152;-90
2024/01/11 08:14:21;;;;;;;133.95;63.72;;;12.60;50.50;;;;;;4898373;28;92166;-85
2024/01/11 08:16:46;;;;;;;135.73;63.13;;;12.70;50.80;;;;;;4915960;28;89031;-86
2024/01/11 08:19:15;;;;;;;131.77;63.42;;;12.70;50.20;;;;;;4900332;28;89075;-88
2024/01/11 08:21:41;;;;;;;130.68;62.45;;;12.70;50.20;;;;;;4905805;28;92792;-86
2024/01/11 08:24:07;;;;;;;134.55;63.20;;;12.80;51.60;;;;;;4902344;28;89733;-85
2024/01/11 08:26:33;;;;;;;130.52;63.17;;;12.80;51.00;;;;;;4902619;28;90425;-85
2024/01/11 08:28:59;;;;;;;129.95;62.47;;;12.80;50.70;;;;;;4899586;28;89643;-83
2024/01/11 08:31:25;;;;;;;130.85;61.83;;;12.90;51.10;;;;;;4915888;28;92160;-89
2024/01/11 08:33:51;;;;;;;134.98;62.90;;;13.00;50.70;;;;;;4906383;28;89824;-85
2024/01/11 08:36:16;;;;;;;134.15;63.20;;;13.00;50.70;;;;;;4898161;28;89249;-87
2024/01/11 08:38:42;;;;;;;131.15;61.63;;;13.10;50.20;;;;;;4913021;28;89072;-87
2024/01/11 08:41:08;;;;;;;131.10;62.00;;;13.10;49.70;;;;;;4900170;28;93238;-87
2024/01/11 08:43:34;;;;;;;131.30;61.72;;;13.10;49.70;;;;;;4899650;28;90946;-85
2024/01/11 08:46:05;;;;;;;130.20;61.35;;;13.10;50.30;;;;;;4898415;28;89761;-83
2024/01/11 08:48:31;;;;;;;130.80;62.15;;;13.20;50.50;;;;;;4906321;28;89351;-84
2024/01/11 08:50:56;;;;;;;131.40;61.72;;;13.20;50.40;;;;;;4901204;28;90211;-84
2024/01/11 08:53:22;;;;;;;131.70;61.85;;;13.20;50.60;;;;;;4898953;28;93208;-83
2024/01/11 08:55:47;;;;;;;132.35;62.92;;;13.10;50.60;;;;;;4902964;28;93780;-85
2024/01/11 08:58:13;;;;;;;132.23;62.83;;;13.20;50.60;;;;;;4901670;28;89280;-84
2024/01/11 09:00:39;;;;;;;132.63;63.53;;;13.30;49.60;;;;;;4898392;28;90091;-84
2024/01/11 09:03:05;;;;;;;130.02;62.50;;;13.40;49.90;;;;;;4899987;28;90140;-87
2024/01/11 09:05:31;;;;;;;135.70;62.50;;;13.50;49.30;;;;;;4897813;28;89385;-85
2024/01/11 09:07:57;;;;;;;128.57;62.55;;;13.60;49.40;;;;;;4901186;28;88102;-86
2024/01/11 09:10:23;;;;;;;129.15;61.80;;;13.70;49.50;;;;;;4899567;28;90284;-85
2024/01/11 09:12:48;;;;;;;132.50;63.15;;;13.80;49.50;;;;;;4898105;28;90284;-84
2024/01/11 09:15:14;;;;;;;130.27;61.75;;;13.80;49.30;;;;;;4916450;28;90713;-86
2024/01/11 09:17:40;;;;;;;131.65;62.20;;;13.80;49.40;;;;;;4903289;28;90023;-86
2024/01/11 09:20:06;;;;;;;130.50;61.70;;;13.80;49.00;;;;;;4903307;28;89690;-87
2024/01/11 09:22:34;;;;;;;133.15;61.70;;;13.90;48.90;;;;;;4903464;28;92362;-87
2024/01/11 09:25:00;;;;;;;130.38;62.08;;;13.90;49.10;;;;;;4900945;28;89038;-89
2024/01/11 09:27:26;;;;;;;133.45;61.65;;;13.80;49.10;;;;;;4907480;28;94064;-90
2024/01/11 09:29:51;;;;;;;129.57;61.63;;;13.80;48.80;;;;;;4893525;23;90315;-36
2024/01/11 09:32:17;;;;;;;133.50;61.38;;;13.90;49.10;;;;;;4875374;28;89045;-37
2024/01/11 09:34:45;;;;;;;132.80;61.25;;;14.00;49.40;;;;;;4881067;28;89604;-40
2024/01/11 09:37:10;;;;;;;128.82;60.55;;;13.90;50.30;;;;;;4877510;28;89414;-40
2024/01/11 09:39:36;;;;;;;130.95;61.83;;;13.90;51.10;;;;;;4877041;28;90663;-37
2024/01/11 09:42:11;;;;;;;132.15;61.63;;;13.90;51.60;;;;;;4877262;28;92517;-38
2024/01/11 09:44:38;;;;;;;130.15;60.53;;;13.90;52.00;;;;;;4875411;28;89685;-38
2024/01/11 09:47:06;;;;;;;130.05;60.47;;;13.90;52.40;;;;;;4883208;28;89788;-38
2024/01/11 09:49:33;;;;;;;128.93;61.25;;;13.90;52.60;;;;;;4882440;28;90680;-39
2024/01/11 09:52:01;;;;;;;131.27;61.03;;;14.00;52.40;;;;;;4881984;28;89909;-41
2024/01/11 09:54:27;;;;;;;129.27;60.55;;;14.00;52.80;;;;;;4876264;28;90540;-39
2024/01/11 09:56:54;;;;;;;130.25;61.33;;;14.10;53.10;;;;;;4874516;28;89409;-39
2024/01/11 09:59:24;;;;;;;131.25;61.38;;;14.10;53.00;;;;;;4869250;28;91183;-39
2024/01/11 10:01:50;;;;;;;139.10;68.75;;;14.10;51.00;;;;;;4873141;28;89808;-44
2024/01/11 10:04:17;;;;;;;145.45;71.95;;;14.00;50.30;;;;;;4879490;28;91351;-40
2024/01/11 10:06:43;;;;;;;145.50;72.97;;;14.10;50.40;;;;;;4877078;28;90836;-42
2024/01/11 10:09:09;;;;;;;150.35;73.82;;;14.30;50.10;;;;;;4876795;28;89545;-40
2024/01/11 10:11:35;;;;;;;153.65;74.60;;;14.40;49.60;;;;;;4860925;28;90079;-40
2024/01/11 10:14:01;;;;;;;147.30;74.40;;;14.50;49.40;;;;;;4861594;28;90037;-40
2024/01/11 10:16:30;;;;;;;147.30;73.90;;;14.60;49.20;;;;;;4863464;28;89919;-40
2024/01/11 10:18:55;;;;;;;144.13;72.75;;;14.70;49.30;;;;;;4867201;28;90092;-36
2024/01/11 10:21:22;;;;;;;147.07;72.55;;;14.70;49.20;;;;;;4859984;28;89697;-38
2024/01/11 10:23:49;;;;;;;146.48;72.28;;;14.80;49.40;;;;;;4853343;28;90422;-38
2024/01/11 10:26:18;;;;;;;145.45;72.50;;;14.90;49.00;;;;;;4852381;28;89984;-38
2024/01/11 10:28:47;;;;;;;144.15;71.15;;;14.90;48.90;;;;;;4853179;28;92342;-37
2024/01/11 10:31:16;;;;;;;148.55;72.25;;;14.90;49.00;;;;;;4857576;28;90833;-35
2024/01/11 10:33:41;;;;;;;146.27;71.43;;;15.00;49.10;;;;;;4852543;28;90111;-35
2024/01/11 10:36:07;;;;;;;142.23;70.00;;;15.00;49.00;;;;;;4856313;28;90542;-36
2024/01/11 10:38:38;;;;;;;142.45;69.93;;;14.90;49.70;;;;;;4856408;28;90702;-35
2024/01/11 10:41:09;;;;;;;143.60;70.10;;;14.90;50.20;;;;;;4858837;28;89794;-36
2024/01/11 10:43:38;;;;;;;141.52;68.90;;;14.90;50.60;;;;;;4858201;28;90384;-36
2024/01/11 10:46:06;;;;;;;140.38;69.43;;;14.90;50.80;;;;;;4883394;23;89169;-73
2024/01/11 10:48:37;;;;;;;139.27;68.05;;;14.90;51.10;;;;;;4894616;28;89988;-71
2024/01/11 10:51:07;;;;;;;138.48;67.82;;;15.00;51.40;;;;;;4892883;28;89754;-72
2024/01/11 10:53:39;;;;;;;142.40;67.65;;;15.00;51.40;;;;;;4891625;28;90975;-73
2024/01/11 10:56:08;;;;;;;139.05;67.50;;;15.00;51.60;;;;;;4892072;28;90550;-72
2024/01/11 10:58:35;;;;;;;141.15;67.10;;;15.00;51.70;;;;;;4888535;28;90668;-74
2024/01/11 11:01:02;;;;;;;138.18;66.00;;;15.10;52.30;;;;;;4888071;28;89650;-73
2024/01/11 11:03:31;;;;;;;136.45;66.40;;;15.10;52.00;;;;;;4895372;28;91368;-72
2024/01/11 11:05:58;;;;;;;138.10;65.70;;;15.10;52.20;;;;;;4894751;28;91149;-71
2024/01/11 11:08:26;;;;;;;139.15;65.65;;;15.10;51.90;;;;;;4896969;28;90106;-73
2024/01/11 11:10:59;;;;;;;135.48;64.90;;;15.10;51.60;;;;;;4890680;28;89219;-71
2024/01/11 11:13:26;;;;;;;137.07;64.55;;;15.10;51.60;;;;;;4892128;28;89795;-74
2024/01/11 11:15:53;;;;;;;136.60;65.35;;;15.10;51.50;;;;;;4891191;28;90010;-73
2024/01/11 11:18:20;;;;;;;134.63;64.15;;;15.10;51.50;;;;;;4896747;28;90456;-70
2024/01/11 11:20:48;;;;;;;132.75;63.65;;;15.10;51.50;;;;;;4889898;28;89982;-70
2024/01/11 11:23:18;;;;;;;135.40;64.10;;;15.10;51.30;;;;;;4893475;28;89688;-73
2024/01/11 11:25:48;;;;;;;132.23;63.67;;;15.00;51.10;;;;;;4889066;28;89581;-73
2024/01/11 11:28:16;;;;;;;135.40;63.83;;;15.00;51.00;;;;;;4895564;28;91157;-73
2024/01/11 11:30:43;;;;;;;135.10;63.78;;;15.00;50.90;;;;;;4892338;28;91445;-70
2024/01/11 11:33:19;;;;;;;133.27;63.17;;;15.00;50.90;;;;;;4903927;28;89739;-73
2024/01/11 11:35:51;;;;;;;133.25;63.03;;;15.00;50.90;;;;;;4897471;28;89056;-71
2024/01/11 11:38:21;;;;;;;133.20;63.53;;;15.00;50.70;;;;;;4895413;28;90580;-73
2024/01/11 11:40:48;;;;;;;132.02;62.75;;;15.00;51.00;;;;;;4892710;28;90484;-72
2024/01/11 11:43:17;;;;;;;131.10;63.30;;;15.00;51.30;;;;;;4890336;28;91417;-74
2024/01/11 11:45:43;;;;;;;130.68;62.15;;;14.90;51.50;;;;;;4888028;28;90326;-75
2024/01/11 11:48:31;;;;;;;133.20;62.22;;;15.00;51.90;;;;;;4889186;28;90159;-73
2024/01/11 11:51:06;;;;;;;135.43;62.20;;;15.00;52.40;;;;;;4891212;28;90354;-72
2024/01/11 11:53:36;;;;;;;133.27;61.75;;;14.90;52.60;;;;;;4891409;28;95138;-73
2024/01/11 11:56:03;;;;;;;132.18;61.92;;;15.00;52.90;;;;;;4891116;28;89970;-73
2024/01/11 11:58:30;;;;;;;133.95;62.08;;;14.90;52.90;;;;;;4893670;28;90237;-72
2024/01/11 12:01:00;;;;;;;132.98;62.00;;;14.90;53.40;;;;;;4891074;28;89962;-74
2024/01/11 12:03:35;;;;;;;132.45;62.33;;;15.00;53.10;;;;;;4896782;28;90104;-76
2024/01/11 12:06:01;;;;;;;131.75;61.70;;;15.00;53.50;;;;;;4896401;28;90508;-72
2024/01/11 12:08:27;;;;;;;132.30;61.80;;;15.00;53.10;;;;;;4897596;28;90846;-70
2024/01/11 12:10:53;;;;;;;131.43;62.17;;;15.00;53.50;;;;;;4885422;28;91726;-70
2024/01/11 12:13:19;;;;;;;131.00;62.15;;;15.00;53.70;;;;;;4893880;28;90330;-71
2024/01/11 12:15:44;;;;;;;131.40;61.60;;;15.00;53.90;;;;;;4899713;28;89964;-70